Stena Germanica — SKPZ — position and weather

sailwx.info

Track history (hours):
 
Tides and Currents Weather Stations Pressure Air Temp Water Temp Dewpoint Dewpoint Depression Visibility Wind Speed Wind Dir Waves Ship Positions

Stena Germanica

Last reported at 2016-Aug-23 20:33 UTC. Time now 2016-Aug-23 21:07 UTC.
Position N 54°43' E 018°55'.

Length 176 m; draft 6.7 m.

Type: Ship (hazmat cat A). MMSI: 265292000.

Date/timePositionNaut miles runAvg speedWind from/ knotsBaromVisibWave heightAir tempDewpointWater temp
2016-Aug-23 20:33N 54°43' E 018°55'1413.5
2016-Aug-23 19:33N 54°32' E 018°41'6 6.3
2016-Aug-23 18:32N 54°33' E 018°30'0 0.0
2016-Aug-23 17:32N 54°33' E 018°30'3 3.4
2016-Aug-23 16:34N 54°32' E 018°36'1514.7
2016-Aug-23 15:34N 54°41' E 018°56'1818.2
2016-Aug-23 14:34N 54°55' E 018°36'1818.0
2016-Aug-23 13:34N 55°06' E 018°10'50 3.8
2016-Aug-23 00:33N 55°33' E 016°57'1514.9
2016-Aug-22 23:33N 55°25' E 017°19'1514.8
2016-Aug-22 22:33N 55°17' E 017°41'1514.9
2016-Aug-22 21:33N 55°09' E 018°03'1515.1
2016-Aug-22 20:33N 55°01' E 018°26'1514.7
2016-Aug-22 19:34N 54°51' E 018°43'1414.0
2016-Aug-22 18:33N 54°39' E 018°57'1313.2
2016-Aug-22 17:33N 54°32' E 018°37'4 4.0
2016-Aug-22 16:32N 54°33' E 018°30'0 0.0
2016-Aug-22 15:32N 54°33' E 018°30'0 0.0
2016-Aug-22 14:32N 54°33' E 018°30'0 0.0
2016-Aug-22 13:32N 54°33' E 018°30'0 0.0
2016-Aug-22 12:32N 54°33' E 018°30'0 0.0
2016-Aug-22 11:32N 54°33' E 018°30'0 0.0
2016-Aug-22 10:32N 54°33' E 018°30'0 0.0
2016-Aug-22 09:32N 54°33' E 018°30'0 0.0
2016-Aug-22 08:32N 54°33' E 018°30'0 0.0
2016-Aug-22 07:32N 54°33' E 018°30'2 1.9
2016-Aug-22 06:33N 54°32' E 018°33'1312.7
2016-Aug-22 05:33N 54°37' E 018°54'1313.3
2016-Aug-22 04:34N 54°49' E 018°45'1514.7
2016-Aug-22 03:34N 54°59' E 018°28'1514.7
2016-Aug-22 02:34N 55°08' E 018°06'1514.8
2016-Aug-22 01:34N 55°16' E 017°45'1514.7
2016-Aug-22 00:34N 55°24' E 017°23'1514.9
2016-Aug-21 23:33N 55°32' E 017°01'1515.0
2016-Aug-21 22:33N 55°40' E 016°39'2215.0
2016-Aug-21 21:05N 55°52' E 016°06'915.0
2016-Aug-21 20:31N 55°57' E 015°53'1414.4
2016-Aug-21 19:34N 56°06' E 015°34'4 1.5
2016-Aug-21 17:10N 56°03' E 015°38'9116.3
2016-Aug-21 11:33N 55°12' E 017°52'1716.4
2016-Aug-21 10:33N 55°03' E 018°16'1616.2
2016-Aug-21 09:34N 54°53' E 018°39'1716.6
2016-Aug-21 08:34N 54°41' E 018°57'1414.2
2016-Aug-21 07:34N 54°32' E 018°38'4 4.3
2016-Aug-21 06:31N 54°33' E 018°30'0 0.0
2016-Aug-21 05:32N 54°33' E 018°30'9 8.8
2016-Aug-21 04:33N 54°32' E 018°45'1313.3
2016-Aug-21 03:33N 54°45' E 018°51'1717.2
2016-Aug-21 02:33N 54°58' E 018°31'1717.3
2016-Aug-21 01:34N 55°08' E 018°06'64 5.8
2016-Aug-20 14:33N 55°43' E 016°31'1817.8
2016-Aug-20 13:32N 55°33' E 016°58'1717.2
2016-Aug-20 12:33N 55°24' E 017°23'1717.2
2016-Aug-20 11:33N 55°14' E 017°48'1717.2
2016-Aug-20 10:33N 55°05' E 018°13'1717.2
2016-Aug-20 09:33N 54°54' E 018°37'1817.9
2016-Aug-20 08:33N 54°41' E 018°57'1514.7
2016-Aug-20 07:34N 54°32' E 018°37'4 4.0
2016-Aug-20 06:33N 54°33' E 018°30'0 0.2
2016-Aug-20 05:33N 54°33' E 018°31'8 8.0
2016-Aug-20 04:33N 54°32' E 018°44'1312.7
2016-Aug-20 03:33N 54°43' E 018°56'1413.8
2016-Aug-20 02:33N 54°53' E 018°39'1413.7
2016-Aug-20 01:34N 55°02' E 018°21'1413.9
2016-Aug-20 00:33N 55°10' E 018°01'1414.0
2016-Aug-19 23:33N 55°17' E 017°41'1414.0
2016-Aug-19 22:33N 55°25' E 017°20'1413.9
2016-Aug-19 21:32N 55°33' E 016°59'47 2.1
2016-Aug-18 23:11N 55°08' E 018°10'914.2
2016-Aug-18 22:33N 55°04' E 018°23'1413.8
2016-Aug-18 21:33N 54°54' E 018°39'1514.6
2016-Aug-18 20:34N 54°42' E 018°55'1312.6
2016-Aug-18 19:34N 54°32' E 018°44'8 8.0
2016-Aug-18 18:33N 54°33' E 018°30'0 0.0
2016-Aug-18 17:33N 54°33' E 018°30'7 7.1
2016-Aug-18 16:34N 54°32' E 018°42'1312.9
2016-Aug-18 15:33N 54°43' E 018°53'1616.0
2016-Aug-18 14:34N 54°56' E 018°36'1616.0
2016-Aug-18 13:34N 55°05' E 018°13'10915.6
2016-Aug-18 06:33N 56°09' E 015°37'3 1.3
2016-Aug-18 04:33N 56°07' E 015°35'10617.4
2016-Aug-17 22:29N 55°07' E 018°09'1617.0
2016-Aug-17 21:33N 54°58' E 018°32'1717.3
2016-Aug-17 20:34N 54°45' E 018°52'1414.3
2016-Aug-17 19:33N 54°32' E 018°46'9 8.9
2016-Aug-17 18:31N 54°33' E 018°30'0 0.0
2016-Aug-17 17:31N 54°33' E 018°30'1 1.0
2016-Aug-17 16:33N 54°32' E 018°32'1313.3
2016-Aug-17 15:34N 54°37' E 018°53'1616.1
2016-Aug-17 14:33N 54°52' E 018°45'1716.9
2016-Aug-17 13:33N 55°02' E 018°21'1716.8
2016-Aug-17 12:33N 55°12' E 017°57'5217.0
2016-Aug-17 09:30N 55°41' E 016°41'1617.0
2016-Aug-17 08:33N 55°49' E 016°16'1716.9
2016-Aug-17 07:33N 55°58' E 015°51'1313.3
2016-Aug-17 06:33N 56°08' E 015°36'2 0.9
2016-Aug-17 04:33N 56°07' E 015°35'1615.7
2016-Aug-17 03:33N 55°56' E 015°56'1717.1
2016-Aug-17 02:33N 55°46' E 016°20'1717.0
2016-Aug-17 01:33N 55°37' E 016°46'5117.0
2016-Aug-16 22:33N 55°09' E 018°01'1716.9
2016-Aug-16 21:34N 55°00' E 018°26'1716.6
2016-Aug-16 20:33N 54°49' E 018°46'1514.6
2016-Aug-16 19:34N 54°34' E 018°53'1312.5
2016-Aug-16 18:33N 54°32' E 018°32'1 0.9
2016-Aug-16 17:32N 54°33' E 018°30'1 1.0
2016-Aug-16 16:34N 54°32' E 018°32'1413.7
2016-Aug-16 15:33N 54°37' E 018°54'1716.8
2016-Aug-16 14:33N 54°52' E 018°41'1818.1
2016-Aug-16 13:33N 55°04' E 018°17'11018.2
2016-Aug-16 07:30N 56°04' E 015°34'2 0.7
2016-Aug-16 04:33N 56°06' E 015°34'1413.5
2016-Aug-16 03:33N 55°57' E 015°53'1514.7
2016-Aug-16 02:33N 55°49' E 016°14'6014.8
2016-Aug-15 22:29N 55°16' E 017°43'1915.0
2016-Aug-15 21:13N 55°05' E 018°11'1014.9
2016-Aug-15 20:33N 54°60' E 018°26'1414.1
2016-Aug-15 19:33N 54°50' E 018°44'1414.1
2016-Aug-15 18:33N 54°38' E 018°57'1312.7
2016-Aug-15 17:33N 54°32' E 018°37'4 4.3
2016-Aug-15 16:34N 54°33' E 018°30'0 0.0
2016-Aug-15 15:33N 54°33' E 018°30'0 0.0
2016-Aug-15 14:34N 54°33' E 018°30'0 0.0
2016-Aug-15 13:34N 54°33' E 018°30'0 0.0
2016-Aug-15 12:34N 54°33' E 018°30'0 0.0
2016-Aug-15 11:33N 54°33' E 018°30'0 0.0
2016-Aug-15 10:33N 54°33' E 018°30'0 0.0
2016-Aug-15 09:33N 54°33' E 018°30'0 0.0
2016-Aug-15 08:33N 54°33' E 018°30'0 0.0
2016-Aug-15 07:33N 54°33' E 018°30'1 1.2
2016-Aug-15 06:34N 54°32' E 018°32'18 9.1
2016-Aug-15 04:33N 54°49' E 018°46'1515.3
2016-Aug-15 03:33N 54°60' E 018°28'1515.3
2016-Aug-15 02:33N 55°08' E 018°05'10314.8
2016-Aug-14 19:33N 56°08' E 015°36'1 0.5
2016-Aug-14 17:34N 56°07' E 015°35'10516.6
2016-Aug-14 11:14N 55°07' E 018°09'1116.9
2016-Aug-14 10:34N 55°01' E 018°25'1716.8
2016-Aug-14 09:34N 54°49' E 018°46'1514.7
2016-Aug-14 08:34N 54°35' E 018°53'1212.4
2016-Aug-14 07:33N 54°32' E 018°32'1 1.2
2016-Aug-14 06:31N 54°33' E 018°30'7 3.8
2016-Aug-14 04:33N 54°32' E 018°43'1312.7
2016-Aug-14 03:33N 54°43' E 018°54'1615.7
2016-Aug-14 02:33N 54°55' E 018°36'1615.5
2016-Aug-14 01:32N 55°05' E 018°14'  
Track history (hours):
 
Tides and Currents Weather Stations Pressure Air Temp Water Temp Dewpoint Dewpoint Depression Visibility Wind Speed Wind Dir Waves Ship Positions

Stena Germanica

Last reported at 2016-Aug-23 20:33 UTC. Time now 2016-Aug-23 21:07 UTC.
Position N 54°43' E 018°55'.

Length 176 m; draft 6.7 m.

Type: Ship (hazmat cat A). MMSI: 265292000.

Date/timePositionNaut miles runAvg speedWind from/ knotsBaromVisibWave heightAir tempDewpointWater temp
2016-Aug-23 20:33N 54°43' E 018°55'1413.5
2016-Aug-23 19:33N 54°32' E 018°41'6 6.3
2016-Aug-23 18:32N 54°33' E 018°30'0 0.0
2016-Aug-23 17:32N 54°33' E 018°30'3 3.4
2016-Aug-23 16:34N 54°32' E 018°36'1514.7
2016-Aug-23 15:34N 54°41' E 018°56'1818.2
2016-Aug-23 14:34N 54°55' E 018°36'1818.0
2016-Aug-23 13:34N 55°06' E 018°10'50 3.8
2016-Aug-23 00:33N 55°33' E 016°57'1514.9
2016-Aug-22 23:33N 55°25' E 017°19'1514.8
2016-Aug-22 22:33N 55°17' E 017°41'1514.9
2016-Aug-22 21:33N 55°09' E 018°03'1515.1
2016-Aug-22 20:33N 55°01' E 018°26'1514.7
2016-Aug-22 19:34N 54°51' E 018°43'1414.0
2016-Aug-22 18:33N 54°39' E 018°57'1313.2
2016-Aug-22 17:33N 54°32' E 018°37'4 4.0
2016-Aug-22 16:32N 54°33' E 018°30'0 0.0
2016-Aug-22 15:32N 54°33' E 018°30'0 0.0
2016-Aug-22 14:32N 54°33' E 018°30'0 0.0
2016-Aug-22 13:32N 54°33' E 018°30'0 0.0
2016-Aug-22 12:32N 54°33' E 018°30'0 0.0
2016-Aug-22 11:32N 54°33' E 018°30'0 0.0
2016-Aug-22 10:32N 54°33' E 018°30'0 0.0
2016-Aug-22 09:32N 54°33' E 018°30'0 0.0
2016-Aug-22 08:32N 54°33' E 018°30'0 0.0
2016-Aug-22 07:32N 54°33' E 018°30'2 1.9
2016-Aug-22 06:33N 54°32' E 018°33'1312.7
2016-Aug-22 05:33N 54°37' E 018°54'1313.3
2016-Aug-22 04:34N 54°49' E 018°45'1514.7
2016-Aug-22 03:34N 54°59' E 018°28'1514.7
2016-Aug-22 02:34N 55°08' E 018°06'1514.8
2016-Aug-22 01:34N 55°16' E 017°45'1514.7
2016-Aug-22 00:34N 55°24' E 017°23'1514.9
2016-Aug-21 23:33N 55°32' E 017°01'1515.0
2016-Aug-21 22:33N 55°40' E 016°39'2215.0
2016-Aug-21 21:05N 55°52' E 016°06'915.0
2016-Aug-21 20:31N 55°57' E 015°53'1414.4
2016-Aug-21 19:34N 56°06' E 015°34'4 1.5
2016-Aug-21 17:10N 56°03' E 015°38'9116.3
2016-Aug-21 11:33N 55°12' E 017°52'1716.4
2016-Aug-21 10:33N 55°03' E 018°16'1616.2
2016-Aug-21 09:34N 54°53' E 018°39'1716.6
2016-Aug-21 08:34N 54°41' E 018°57'1414.2
2016-Aug-21 07:34N 54°32' E 018°38'4 4.3
2016-Aug-21 06:31N 54°33' E 018°30'0 0.0
2016-Aug-21 05:32N 54°33' E 018°30'9 8.8
2016-Aug-21 04:33N 54°32' E 018°45'1313.3
2016-Aug-21 03:33N 54°45' E 018°51'1717.2
2016-Aug-21 02:33N 54°58' E 018°31'1717.3
2016-Aug-21 01:34N 55°08' E 018°06'64 5.8
2016-Aug-20 14:33N 55°43' E 016°31'1817.8
2016-Aug-20 13:32N 55°33' E 016°58'1717.2
2016-Aug-20 12:33N 55°24' E 017°23'1717.2
2016-Aug-20 11:33N 55°14' E 017°48'1717.2
2016-Aug-20 10:33N 55°05' E 018°13'1717.2
2016-Aug-20 09:33N 54°54' E 018°37'1817.9
2016-Aug-20 08:33N 54°41' E 018°57'1514.7
2016-Aug-20 07:34N 54°32' E 018°37'4 4.0
2016-Aug-20 06:33N 54°33' E 018°30'0 0.2
2016-Aug-20 05:33N 54°33' E 018°31'8 8.0
2016-Aug-20 04:33N 54°32' E 018°44'1312.7
2016-Aug-20 03:33N 54°43' E 018°56'1413.8
2016-Aug-20 02:33N 54°53' E 018°39'1413.7
2016-Aug-20 01:34N 55°02' E 018°21'1413.9
2016-Aug-20 00:33N 55°10' E 018°01'1414.0
2016-Aug-19 23:33N 55°17' E 017°41'1414.0
2016-Aug-19 22:33N 55°25' E 017°20'1413.9
2016-Aug-19 21:32N 55°33' E 016°59'47 2.1
2016-Aug-18 23:11N 55°08' E 018°10'914.2
2016-Aug-18 22:33N 55°04' E 018°23'1413.8
2016-Aug-18 21:33N 54°54' E 018°39'1514.6
2016-Aug-18 20:34N 54°42' E 018°55'1312.6
2016-Aug-18 19:34N 54°32' E 018°44'8 8.0
2016-Aug-18 18:33N 54°33' E 018°30'0 0.0
2016-Aug-18 17:33N 54°33' E 018°30'7 7.1
2016-Aug-18 16:34N 54°32' E 018°42'1312.9
2016-Aug-18 15:33N 54°43' E 018°53'1616.0
2016-Aug-18 14:34N 54°56' E 018°36'1616.0
2016-Aug-18 13:34N 55°05' E 018°13'10915.6
2016-Aug-18 06:33N 56°09' E 015°37'3 1.3
2016-Aug-18 04:33N 56°07' E 015°35'10617.4
2016-Aug-17 22:29N 55°07' E 018°09'1617.0
2016-Aug-17 21:33N 54°58' E 018°32'1717.3
2016-Aug-17 20:34N 54°45' E 018°52'1414.3
2016-Aug-17 19:33N 54°32' E 018°46'9 8.9
2016-Aug-17 18:31N 54°33' E 018°30'0 0.0
2016-Aug-17 17:31N 54°33' E 018°30'1 1.0
2016-Aug-17 16:33N 54°32' E 018°32'1313.3
2016-Aug-17 15:34N 54°37' E 018°53'1616.1
2016-Aug-17 14:33N 54°52' E 018°45'1716.9
2016-Aug-17 13:33N 55°02' E 018°21'1716.8
2016-Aug-17 12:33N 55°12' E 017°57'5217.0
2016-Aug-17 09:30N 55°41' E 016°41'1617.0
2016-Aug-17 08:33N 55°49' E 016°16'1716.9
2016-Aug-17 07:33N 55°58' E 015°51'1313.3
2016-Aug-17 06:33N 56°08' E 015°36'2 0.9
2016-Aug-17 04:33N 56°07' E 015°35'1615.7
2016-Aug-17 03:33N 55°56' E 015°56'1717.1
2016-Aug-17 02:33N 55°46' E 016°20'1717.0
2016-Aug-17 01:33N 55°37' E 016°46'5117.0
2016-Aug-16 22:33N 55°09' E 018°01'1716.9
2016-Aug-16 21:34N 55°00' E 018°26'1716.6
2016-Aug-16 20:33N 54°49' E 018°46'1514.6
2016-Aug-16 19:34N 54°34' E 018°53'1312.5
2016-Aug-16 18:33N 54°32' E 018°32'1 0.9
2016-Aug-16 17:32N 54°33' E 018°30'1 1.0
2016-Aug-16 16:34N 54°32' E 018°32'1413.7
2016-Aug-16 15:33N 54°37' E 018°54'1716.8
2016-Aug-16 14:33N 54°52' E 018°41'1818.1
2016-Aug-16 13:33N 55°04' E 018°17'11018.2
2016-Aug-16 07:30N 56°04' E 015°34'2 0.7
2016-Aug-16 04:33N 56°06' E 015°34'1413.5
2016-Aug-16 03:33N 55°57' E 015°53'1514.7
2016-Aug-16 02:33N 55°49' E 016°14'6014.8
2016-Aug-15 22:29N 55°16' E 017°43'1915.0
2016-Aug-15 21:13N 55°05' E 018°11'1014.9
2016-Aug-15 20:33N 54°60' E 018°26'1414.1
2016-Aug-15 19:33N 54°50' E 018°44'1414.1
2016-Aug-15 18:33N 54°38' E 018°57'1312.7
2016-Aug-15 17:33N 54°32' E 018°37'4 4.3
2016-Aug-15 16:34N 54°33' E 018°30'0 0.0
2016-Aug-15 15:33N 54°33' E 018°30'0 0.0
2016-Aug-15 14:34N 54°33' E 018°30'0 0.0
2016-Aug-15 13:34N 54°33' E 018°30'0 0.0
2016-Aug-15 12:34N 54°33' E 018°30'0 0.0
2016-Aug-15 11:33N 54°33' E 018°30'0 0.0
2016-Aug-15 10:33N 54°33' E 018°30'0 0.0
2016-Aug-15 09:33N 54°33' E 018°30'0 0.0
2016-Aug-15 08:33N 54°33' E 018°30'0 0.0
2016-Aug-15 07:33N 54°33' E 018°30'1 1.2
2016-Aug-15 06:34N 54°32' E 018°32'18 9.1
2016-Aug-15 04:33N 54°49' E 018°46'1515.3
2016-Aug-15 03:33N 54°60' E 018°28'1515.3
2016-Aug-15 02:33N 55°08' E 018°05'10314.8
2016-Aug-14 19:33N 56°08' E 015°36'1 0.5
2016-Aug-14 17:34N 56°07' E 015°35'10516.6
2016-Aug-14 11:14N 55°07' E 018°09'1116.9
2016-Aug-14 10:34N 55°01' E 018°25'1716.8
2016-Aug-14 09:34N 54°49' E 018°46'1514.7
2016-Aug-14 08:34N 54°35' E 018°53'1212.4
2016-Aug-14 07:33N 54°32' E 018°32'1 1.2
2016-Aug-14 06:31N 54°33' E 018°30'7 3.8
2016-Aug-14 04:33N 54°32' E 018°43'1312.7
2016-Aug-14 03:33N 54°43' E 018°54'1615.7
2016-Aug-14 02:33N 54°55' E 018°36'1615.5
2016-Aug-14 01:32N 55°05' E 018°14'  

Dump ship's entire track history